sensor_id;sensor_type;location;lat;lon;timestamp;temperature;humidity
42973;DHT22;28610;51.214;6.962;2022-10-16T00:00:48;14.00;99.90
42973;DHT22;28610;51.214;6.962;2022-10-16T00:03:33;14.00;99.90
42973;DHT22;28610;51.214;6.962;2022-10-16T00:06:21;14.00;99.90
42973;DHT22;28610;51.214;6.962;2022-10-16T00:09:08;14.00;99.90
42973;DHT22;28610;51.214;6.962;2022-10-16T00:11:53;13.90;99.90
42973;DHT22;28610;51.214;6.962;2022-10-16T00:14:39;13.90;99.90
42973;DHT22;28610;51.214;6.962;2022-10-16T00:17:25;13.80;99.90
42973;DHT22;28610;51.214;6.962;2022-10-16T00:20:11;13.80;99.90
42973;DHT22;28610;51.214;6.962;2022-10-16T00:22:56;13.80;99.90
42973;DHT22;28610;51.214;6.962;2022-10-16T00:25:43;13.70;99.90
42973;DHT22;28610;51.214;6.962;2022-10-16T00:28:29;13.70;99.90
42973;DHT22;28610;51.214;6.962;2022-10-16T00:31:16;13.70;99.90
42973;DHT22;28610;51.214;6.962;2022-10-16T00:34:01;13.70;99.90
42973;DHT22;28610;51.214;6.962;2022-10-16T00:36:47;13.70;99.90
42973;DHT22;28610;51.214;6.962;2022-10-16T00:39:32;13.60;99.90
42973;DHT22;28610;51.214;6.962;2022-10-16T00:42:19;13.60;99.90
42973;DHT22;28610;51.214;6.962;2022-10-16T00:45:05;13.60;99.90
42973;DHT22;28610;51.214;6.962;2022-10-16T00:47:53;13.60;99.90
42973;DHT22;28610;51.214;6.962;2022-10-16T00:50:38;13.60;99.90
42973;DHT22;28610;51.214;6.962;2022-10-16T00:53:27;13.60;99.90
42973;DHT22;28610;51.214;6.962;2022-10-16T00:56:13;13.50;99.90
42973;DHT22;28610;51.214;6.962;2022-10-16T00:59:01;13.50;99.90
42973;DHT22;28610;51.214;6.962;2022-10-16T01:01:48;13.50;99.90
42973;DHT22;28610;51.214;6.962;2022-10-16T01:04:37;13.50;99.90
42973;DHT22;28610;51.214;6.962;2022-10-16T01:07:34;13.40;99.90
42973;DHT22;28610;51.214;6.962;2022-10-16T01:10:27;13.50;99.90
42973;DHT22;28610;51.214;6.962;2022-10-16T01:13:19;13.50;99.90
42973;DHT22;28610;51.214;6.962;2022-10-16T01:16:11;13.50;99.90
42973;DHT22;28610;51.214;6.962;2022-10-16T01:19:04;13.40;99.90
42973;DHT22;28610;51.214;6.962;2022-10-16T01:21:53;13.50;99.90
42973;DHT22;28610;51.214;6.962;2022-10-16T01:24:41;13.50;99.90
42973;DHT22;28610;51.214;6.962;2022-10-16T01:27:32;13.40;99.90
42973;DHT22;28610;51.214;6.962;2022-10-16T01:30:23;13.40;99.90
42973;DHT22;28610;51.214;6.962;2022-10-16T01:33:16;13.50;99.90
42973;DHT22;28610;51.214;6.962;2022-10-16T01:36:07;13.50;99.90
42973;DHT22;28610;51.214;6.962;2022-10-16T01:38:56;13.40;99.90
42973;DHT22;28610;51.214;6.962;2022-10-16T01:41:48;13.50;99.90
42973;DHT22;28610;51.214;6.962;2022-10-16T01:44:36;13.40;99.90
42973;DHT22;28610;51.214;6.962;2022-10-16T01:47:25;13.50;99.90
42973;DHT22;28610;51.214;6.962;2022-10-16T01:50:12;13.40;99.90
42973;DHT22;28610;51.214;6.962;2022-10-16T01:53:00;13.40;99.90
42973;DHT22;28610;51.214;6.962;2022-10-16T01:55:48;13.50;99.90
42973;DHT22;28610;51.214;6.962;2022-10-16T01:58:39;13.40;99.90
42973;DHT22;28610;51.214;6.962;2022-10-16T02:01:29;13.50;99.90
42973;DHT22;28610;51.214;6.962;2022-10-16T02:04:18;13.50;99.90
42973;DHT22;28610;51.214;6.962;2022-10-16T02:07:04;13.50;99.90
42973;DHT22;28610;51.214;6.962;2022-10-16T02:09:50;13.50;99.90
42973;DHT22;28610;51.214;6.962;2022-10-16T02:12:37;13.60;99.90
42973;DHT22;28610;51.214;6.962;2022-10-16T02:15:24;13.50;99.90
42973;DHT22;28610;51.214;6.962;2022-10-16T02:18:10;13.50;99.90
42973;DHT22;28610;51.214;6.962;2022-10-16T02:20:59;13.50;99.90
42973;DHT22;28610;51.214;6.962;2022-10-16T02:23:50;13.60;99.90
42973;DHT22;28610;51.214;6.962;2022-10-16T02:26:41;13.60;99.90
42973;DHT22;28610;51.214;6.962;2022-10-16T02:29:28;13.60;99.90
42973;DHT22;28610;51.214;6.962;2022-10-16T02:32:15;13.60;99.90
42973;DHT22;28610;51.214;6.962;2022-10-16T02:35:04;13.60;99.90
42973;DHT22;28610;51.214;6.962;2022-10-16T02:37:51;13.70;99.90
42973;DHT22;28610;51.214;6.962;2022-10-16T02:40:37;13.70;99.90
42973;DHT22;28610;51.214;6.962;2022-10-16T02:43:22;13.70;99.90
42973;DHT22;28610;51.214;6.962;2022-10-16T02:46:09;13.70;99.90
42973;DHT22;28610;51.214;6.962;2022-10-16T02:48:55;13.70;99.90
42973;DHT22;28610;51.214;6.962;2022-10-16T02:51:41;13.70;99.90
42973;DHT22;28610;51.214;6.962;2022-10-16T02:54:27;13.70;99.90
42973;DHT22;28610;51.214;6.962;2022-10-16T02:57:12;13.70;99.90
42973;DHT22;28610;51.214;6.962;2022-10-16T02:59:58;13.70;99.90
42973;DHT22;28610;51.214;6.962;2022-10-16T03:02:43;13.70;99.90
42973;DHT22;28610;51.214;6.962;2022-10-16T03:05:28;13.70;99.90
42973;DHT22;28610;51.214;6.962;2022-10-16T03:08:15;13.70;99.90
42973;DHT22;28610;51.214;6.962;2022-10-16T03:11:01;13.70;99.90
42973;DHT22;28610;51.214;6.962;2022-10-16T03:13:46;13.60;99.90
42973;DHT22;28610;51.214;6.962;2022-10-16T03:16:32;13.60;99.90
42973;DHT22;28610;51.214;6.962;2022-10-16T03:19:17;13.60;99.90
42973;DHT22;28610;51.214;6.962;2022-10-16T03:22:03;13.60;99.90
42973;DHT22;28610;51.214;6.962;2022-10-16T03:24:49;13.50;99.90
42973;DHT22;28610;51.214;6.962;2022-10-16T03:27:35;13.50;99.90
42973;DHT22;28610;51.214;6.962;2022-10-16T03:30:20;13.50;99.90
42973;DHT22;28610;51.214;6.962;2022-10-16T03:33:06;13.40;99.90
42973;DHT22;28610;51.214;6.962;2022-10-16T03:35:51;13.40;99.90
42973;DHT22;28610;51.214;6.962;2022-10-16T03:38:38;13.50;99.90
42973;DHT22;28610;51.214;6.962;2022-10-16T03:41:24;13.50;99.90
42973;DHT22;28610;51.214;6.962;2022-10-16T03:44:10;13.60;99.90
42973;DHT22;28610;51.214;6.962;2022-10-16T03:46:55;13.50;99.90
42973;DHT22;28610;51.214;6.962;2022-10-16T03:49:41;13.50;99.90
42973;DHT22;28610;51.214;6.962;2022-10-16T03:52:26;13.40;99.90
42973;DHT22;28610;51.214;6.962;2022-10-16T03:55:12;13.40;99.90
42973;DHT22;28610;51.214;6.962;2022-10-16T03:57:58;13.40;99.90
42973;DHT22;28610;51.214;6.962;2022-10-16T04:00:45;13.30;99.90
42973;DHT22;28610;51.214;6.962;2022-10-16T04:03:31;13.30;99.90
42973;DHT22;28610;51.214;6.962;2022-10-16T04:06:16;13.30;99.90
42973;DHT22;28610;51.214;6.962;2022-10-16T04:09:02;13.20;99.90
42973;DHT22;28610;51.214;6.962;2022-10-16T04:11:47;13.20;99.90
42973;DHT22;28610;51.214;6.962;2022-10-16T04:14:34;13.20;99.90
42973;DHT22;28610;51.214;6.962;2022-10-16T04:17:19;13.20;99.90
42973;DHT22;28610;51.214;6.962;2022-10-16T04:20:05;13.10;99.90
42973;DHT22;28610;51.214;6.962;2022-10-16T04:22:51;13.10;99.90
42973;DHT22;28610;51.214;6.962;2022-10-16T04:25:36;13.10;99.90
42973;DHT22;28610;51.214;6.962;2022-10-16T04:28:22;13.10;99.90
42973;DHT22;28610;51.214;6.962;2022-10-16T04:31:09;13.10;99.90
42973;DHT22;28610;51.214;6.962;2022-10-16T04:33:54;13.00;99.90
42973;DHT22;28610;51.214;6.962;2022-10-16T04:36:39;13.00;99.90
42973;DHT22;28610;51.214;6.962;2022-10-16T04:39:25;13.00;99.90
42973;DHT22;28610;51.214;6.962;2022-10-16T04:42:11;13.00;99.90
42973;DHT22;28610;51.214;6.962;2022-10-16T04:44:56;13.00;99.90
42973;DHT22;28610;51.214;6.962;2022-10-16T04:47:42;13.00;99.90
42973;DHT22;28610;51.214;6.962;2022-10-16T04:50:28;12.90;99.90
42973;DHT22;28610;51.214;6.962;2022-10-16T04:53:13;12.90;99.90
42973;DHT22;28610;51.214;6.962;2022-10-16T04:55:58;12.90;99.90
42973;DHT22;28610;51.214;6.962;2022-10-16T04:58:44;12.90;99.90
42973;DHT22;28610;51.214;6.962;2022-10-16T05:01:29;12.90;99.90
42973;DHT22;28610;51.214;6.962;2022-10-16T05:04:16;12.90;99.90
42973;DHT22;28610;51.214;6.962;2022-10-16T05:07:01;12.90;99.90
42973;DHT22;28610;51.214;6.962;2022-10-16T05:09:47;12.90;99.90
42973;DHT22;28610;51.214;6.962;2022-10-16T05:12:32;12.90;99.90
42973;DHT22;28610;51.214;6.962;2022-10-16T05:15:18;12.90;99.90
42973;DHT22;28610;51.214;6.962;2022-10-16T05:18:03;12.80;99.90
42973;DHT22;28610;51.214;6.962;2022-10-16T05:20:50;12.80;99.90
42973;DHT22;28610;51.214;6.962;2022-10-16T05:23:35;12.80;99.90
42973;DHT22;28610;51.214;6.962;2022-10-16T05:26:20;12.80;99.90
42973;DHT22;28610;51.214;6.962;2022-10-16T05:29:06;12.70;99.90
42973;DHT22;28610;51.214;6.962;2022-10-16T05:31:51;12.80;99.90
42973;DHT22;28610;51.214;6.962;2022-10-16T05:34:37;12.70;99.90
42973;DHT22;28610;51.214;6.962;2022-10-16T05:37:24;12.80;99.90
42973;DHT22;28610;51.214;6.962;2022-10-16T05:40:10;12.80;99.90
42973;DHT22;28610;51.214;6.962;2022-10-16T05:42:55;12.70;99.90
42973;DHT22;28610;51.214;6.962;2022-10-16T05:45:41;12.70;99.90
42973;DHT22;28610;51.214;6.962;2022-10-16T05:48:26;12.70;99.90
42973;DHT22;28610;51.214;6.962;2022-10-16T05:51:13;12.70;99.90
42973;DHT22;28610;51.214;6.962;2022-10-16T05:54:00;12.70;99.90
42973;DHT22;28610;51.214;6.962;2022-10-16T05:56:45;12.80;99.90
42973;DHT22;28610;51.214;6.962;2022-10-16T05:59:31;12.80;99.90
42973;DHT22;28610;51.214;6.962;2022-10-16T06:02:16;12.80;99.90
42973;DHT22;28610;51.214;6.962;2022-10-16T06:05:01;12.80;99.90
42973;DHT22;28610;51.214;6.962;2022-10-16T06:07:47;12.80;99.90
42973;DHT22;28610;51.214;6.962;2022-10-16T06:10:33;12.80;99.90
42973;DHT22;28610;51.214;6.962;2022-10-16T06:13:19;12.80;99.90
42973;DHT22;28610;51.214;6.962;2022-10-16T06:16:05;12.80;99.90
42973;DHT22;28610;51.214;6.962;2022-10-16T06:18:51;12.90;99.90
42973;DHT22;28610;51.214;6.962;2022-10-16T06:21:36;13.00;99.90
42973;DHT22;28610;51.214;6.962;2022-10-16T06:24:22;13.00;99.90
42973;DHT22;28610;51.214;6.962;2022-10-16T06:27:09;13.10;99.90
42973;DHT22;28610;51.214;6.962;2022-10-16T06:29:54;13.10;99.90
42973;DHT22;28610;51.214;6.962;2022-10-16T06:32:39;13.10;99.90
42973;DHT22;28610;51.214;6.962;2022-10-16T06:35:25;13.10;99.90
42973;DHT22;28610;51.214;6.962;2022-10-16T06:38:10;13.20;99.90
42973;DHT22;28610;51.214;6.962;2022-10-16T06:40:56;13.20;99.90
42973;DHT22;28610;51.214;6.962;2022-10-16T06:43:43;13.20;99.90
42973;DHT22;28610;51.214;6.962;2022-10-16T06:46:29;13.20;99.90
42973;DHT22;28610;51.214;6.962;2022-10-16T06:49:14;13.30;99.90
42973;DHT22;28610;51.214;6.962;2022-10-16T06:52:05;13.40;99.90
42973;DHT22;28610;51.214;6.962;2022-10-16T06:54:50;13.40;99.90
42973;DHT22;28610;51.214;6.962;2022-10-16T06:57:36;13.50;99.90
42973;DHT22;28610;51.214;6.962;2022-10-16T07:00:22;13.50;99.90
42973;DHT22;28610;51.214;6.962;2022-10-16T07:03:08;13.60;99.90
42973;DHT22;28610;51.214;6.962;2022-10-16T07:05:53;13.70;99.90
42973;DHT22;28610;51.214;6.962;2022-10-16T07:08:40;13.80;99.90
42973;DHT22;28610;51.214;6.962;2022-10-16T07:11:26;13.80;99.90
42973;DHT22;28610;51.214;6.962;2022-10-16T07:14:15;13.90;99.90
42973;DHT22;28610;51.214;6.962;2022-10-16T07:17:02;13.80;99.90
42973;DHT22;28610;51.214;6.962;2022-10-16T07:19:48;13.80;99.90
42973;DHT22;28610;51.214;6.962;2022-10-16T07:22:33;13.70;99.90
42973;DHT22;28610;51.214;6.962;2022-10-16T07:25:19;13.70;99.90
42973;DHT22;28610;51.214;6.962;2022-10-16T07:28:04;13.70;99.90
42973;DHT22;28610;51.214;6.962;2022-10-16T07:30:49;13.70;99.90
42973;DHT22;28610;51.214;6.962;2022-10-16T07:33:37;13.70;99.90
42973;DHT22;28610;51.214;6.962;2022-10-16T07:36:23;13.70;99.90
42973;DHT22;28610;51.214;6.962;2022-10-16T07:39:08;13.70;99.90
42973;DHT22;28610;51.214;6.962;2022-10-16T07:41:53;13.60;99.90
42973;DHT22;28610;51.214;6.962;2022-10-16T07:44:39;13.60;99.90
42973;DHT22;28610;51.214;6.962;2022-10-16T07:47:25;13.60;99.90
42973;DHT22;28610;51.214;6.962;2022-10-16T07:50:11;13.60;99.90
42973;DHT22;28610;51.214;6.962;2022-10-16T07:52:57;13.60;99.90
42973;DHT22;28610;51.214;6.962;2022-10-16T07:55:43;13.60;99.90
42973;DHT22;28610;51.214;6.962;2022-10-16T07:58:28;13.70;99.90
42973;DHT22;28610;51.214;6.962;2022-10-16T08:01:15;13.80;99.90
42973;DHT22;28610;51.214;6.962;2022-10-16T08:04:00;13.90;99.90
42973;DHT22;28610;51.214;6.962;2022-10-16T08:06:47;14.00;99.90
42973;DHT22;28610;51.214;6.962;2022-10-16T08:09:33;14.10;99.90
42973;DHT22;28610;51.214;6.962;2022-10-16T08:12:19;14.20;99.90
42973;DHT22;28610;51.214;6.962;2022-10-16T08:15:05;14.20;99.90
42973;DHT22;28610;51.214;6.962;2022-10-16T08:17:55;14.30;99.90
42973;DHT22;28610;51.214;6.962;2022-10-16T08:20:41;14.40;99.90
42973;DHT22;28610;51.214;6.962;2022-10-16T08:23:28;14.50;99.90
42973;DHT22;28610;51.214;6.962;2022-10-16T08:26:14;14.60;99.90
42973;DHT22;28610;51.214;6.962;2022-10-16T08:28:59;14.70;99.90
42973;DHT22;28610;51.214;6.962;2022-10-16T08:31:45;14.80;99.90
42973;DHT22;28610;51.214;6.962;2022-10-16T08:34:30;14.80;99.90
42973;DHT22;28610;51.214;6.962;2022-10-16T08:37:15;15.00;99.90
42973;DHT22;28610;51.214;6.962;2022-10-16T08:40:03;15.10;99.90
42973;DHT22;28610;51.214;6.962;2022-10-16T08:43:20;15.20;99.90
42973;DHT22;28610;51.214;6.962;2022-10-16T08:46:25;15.40;99.90
42973;DHT22;28610;51.214;6.962;2022-10-16T08:49:13;15.50;99.90
42973;DHT22;28610;51.214;6.962;2022-10-16T08:51:58;15.70;99.90
42973;DHT22;28610;51.214;6.962;2022-10-16T08:54:46;15.70;99.90
42973;DHT22;28610;51.214;6.962;2022-10-16T08:57:34;15.90;99.90
42973;DHT22;28610;51.214;6.962;2022-10-16T09:00:19;15.90;99.20
42973;DHT22;28610;51.214;6.962;2022-10-16T09:03:14;16.00;99.00
42973;DHT22;28610;51.214;6.962;2022-10-16T09:06:17;15.90;98.80
42973;DHT22;28610;51.214;6.962;2022-10-16T09:09:25;16.10;98.60
42973;DHT22;28610;51.214;6.962;2022-10-16T09:12:17;16.20;97.20
42973;DHT22;28610;51.214;6.962;2022-10-16T09:15:14;16.10;98.70
42973;DHT22;28610;51.214;6.962;2022-10-16T09:18:06;16.30;98.60
42973;DHT22;28610;51.214;6.962;2022-10-16T09:21:01;16.30;98.50
42973;DHT22;28610;51.214;6.962;2022-10-16T09:23:50;16.20;97.30
42973;DHT22;28610;51.214;6.962;2022-10-16T09:26:35;16.20;97.50
42973;DHT22;28610;51.214;6.962;2022-10-16T09:29:21;16.20;97.60
42973;DHT22;28610;51.214;6.962;2022-10-16T09:32:12;16.10;97.70
42973;DHT22;28610;51.214;6.962;2022-10-16T09:34:59;16.30;97.70
42973;DHT22;28610;51.214;6.962;2022-10-16T09:37:46;16.30;97.80
42973;DHT22;28610;51.214;6.962;2022-10-16T09:40:34;16.40;97.60
42973;DHT22;28610;51.214;6.962;2022-10-16T09:43:23;16.60;97.60
42973;DHT22;28610;51.214;6.962;2022-10-16T09:46:22;16.70;96.00
42973;DHT22;28610;51.214;6.962;2022-10-16T09:49:21;17.80;94.50
42973;DHT22;28610;51.214;6.962;2022-10-16T09:52:13;18.70;90.90
42973;DHT22;28610;51.214;6.962;2022-10-16T09:55:00;18.60;91.50
42973;DHT22;28610;51.214;6.962;2022-10-16T09:57:49;18.60;90.90
42973;DHT22;28610;51.214;6.962;2022-10-16T10:00:34;19.40;87.50
42973;DHT22;28610;51.214;6.962;2022-10-16T10:03:35;19.30;86.40
42973;DHT22;28610;51.214;6.962;2022-10-16T10:06:25;19.00;85.90
42973;DHT22;28610;51.214;6.962;2022-10-16T10:09:18;19.10;85.30
42973;DHT22;28610;51.214;6.962;2022-10-16T10:12:05;18.80;86.20
42973;DHT22;28610;51.214;6.962;2022-10-16T10:14:52;18.60;87.60
42973;DHT22;28610;51.214;6.962;2022-10-16T10:17:46;19.30;83.50
42973;DHT22;28610;51.214;6.962;2022-10-16T10:20:35;21.50;73.70
42973;DHT22;28610;51.214;6.962;2022-10-16T10:23:25;22.00;67.00
42973;DHT22;28610;51.214;6.962;2022-10-16T10:26:15;21.20;70.30
42973;DHT22;28610;51.214;6.962;2022-10-16T10:29:07;22.00;66.10
42973;DHT22;28610;51.214;6.962;2022-10-16T10:32:09;22.60;62.40
42973;DHT22;28610;51.214;6.962;2022-10-16T10:35:12;21.70;65.40
42973;DHT22;28610;51.214;6.962;2022-10-16T10:38:09;20.20;73.30
42973;DHT22;28610;51.214;6.962;2022-10-16T10:41:23;19.30;78.00
42973;DHT22;28610;51.214;6.962;2022-10-16T10:44:15;20.20;74.80
42973;DHT22;28610;51.214;6.962;2022-10-16T10:47:06;22.00;65.50
42973;DHT22;28610;51.214;6.962;2022-10-16T10:50:07;23.10;60.00
42973;DHT22;28610;51.214;6.962;2022-10-16T10:53:05;22.20;59.60
42973;DHT22;28610;51.214;6.962;2022-10-16T10:56:00;23.20;59.00
42973;DHT22;28610;51.214;6.962;2022-10-16T10:59:12;24.30;51.40
42973;DHT22;28610;51.214;6.962;2022-10-16T11:02:05;24.20;52.50
42973;DHT22;28610;51.214;6.962;2022-10-16T11:05:19;21.80;57.90
42973;DHT22;28610;51.214;6.962;2022-10-16T11:08:11;20.30;69.20
42973;DHT22;28610;51.214;6.962;2022-10-16T11:11:01;20.00;75.70
42973;DHT22;28610;51.214;6.962;2022-10-16T11:13:53;19.60;77.30
42973;DHT22;28610;51.214;6.962;2022-10-16T11:16:44;19.40;76.90
42973;DHT22;28610;51.214;6.962;2022-10-16T11:19:37;19.30;77.80
42973;DHT22;28610;51.214;6.962;2022-10-16T11:22:28;19.30;79.70
42973;DHT22;28610;51.214;6.962;2022-10-16T11:25:19;19.40;80.70
42973;DHT22;28610;51.214;6.962;2022-10-16T11:28:11;19.60;77.50
42973;DHT22;28610;51.214;6.962;2022-10-16T11:31:02;19.40;79.00
42973;DHT22;28610;51.214;6.962;2022-10-16T11:33:57;19.10;80.00
42973;DHT22;28610;51.214;6.962;2022-10-16T11:36:47;19.20;80.90
42973;DHT22;28610;51.214;6.962;2022-10-16T11:39:34;19.20;79.70
42973;DHT22;28610;51.214;6.962;2022-10-16T11:42:25;18.90;80.40
42973;DHT22;28610;51.214;6.962;2022-10-16T11:45:23;18.80;80.70
42973;DHT22;28610;51.214;6.962;2022-10-16T11:48:18;18.70;82.70
42973;DHT22;28610;51.214;6.962;2022-10-16T11:51:11;18.90;84.70
42973;DHT22;28610;51.214;6.962;2022-10-16T11:54:03;19.10;83.20
42973;DHT22;28610;51.214;6.962;2022-10-16T11:56:55;19.10;83.20
42973;DHT22;28610;51.214;6.962;2022-10-16T11:59:45;18.90;81.40
42973;DHT22;28610;51.214;6.962;2022-10-16T12:02:36;18.90;81.40
42973;DHT22;28610;51.214;6.962;2022-10-16T12:05:29;19.00;83.30
42973;DHT22;28610;51.214;6.962;2022-10-16T12:08:20;19.30;82.20
42973;DHT22;28610;51.214;6.962;2022-10-16T12:11:08;19.50;80.50
42973;DHT22;28610;51.214;6.962;2022-10-16T12:14:17;19.60;79.10
42973;DHT22;28610;51.214;6.962;2022-10-16T12:17:04;19.60;78.60
42973;DHT22;28610;51.214;6.962;2022-10-16T12:20:29;19.60;77.10
42973;DHT22;28610;51.214;6.962;2022-10-16T12:23:21;19.40;79.10
42973;DHT22;28610;51.214;6.962;2022-10-16T12:26:07;19.40;81.00
42973;DHT22;28610;51.214;6.962;2022-10-16T12:28:52;19.40;79.70
42973;DHT22;28610;51.214;6.962;2022-10-16T12:31:43;19.40;80.20
42973;DHT22;28610;51.214;6.962;2022-10-16T12:34:34;19.50;77.90
42973;DHT22;28610;51.214;6.962;2022-10-16T12:37:24;19.60;77.80
42973;DHT22;28610;51.214;6.962;2022-10-16T12:40:23;19.60;76.70
42973;DHT22;28610;51.214;6.962;2022-10-16T12:43:26;19.80;77.00
42973;DHT22;28610;51.214;6.962;2022-10-16T12:46:24;20.00;77.00
42973;DHT22;28610;51.214;6.962;2022-10-16T12:49:23;20.20;76.00
42973;DHT22;28610;51.214;6.962;2022-10-16T12:52:26;20.30;72.40
42973;DHT22;28610;51.214;6.962;2022-10-16T12:55:17;20.30;74.10
42973;DHT22;28610;51.214;6.962;2022-10-16T12:58:27;20.20;74.60
42973;DHT22;28610;51.214;6.962;2022-10-16T13:01:29;19.90;74.70
42973;DHT22;28610;51.214;6.962;2022-10-16T13:04:27;19.90;75.50
42973;DHT22;28610;51.214;6.962;2022-10-16T13:07:30;19.70;74.70
42973;DHT22;28610;51.214;6.962;2022-10-16T13:10:25;19.70;73.60
42973;DHT22;28610;51.214;6.962;2022-10-16T13:13:36;19.60;74.70
42973;DHT22;28610;51.214;6.962;2022-10-16T13:16:30;19.60;77.30
42973;DHT22;28610;51.214;6.962;2022-10-16T13:19:24;19.60;76.10
42973;DHT22;28610;51.214;6.962;2022-10-16T13:22:16;19.80;77.30
42973;DHT22;28610;51.214;6.962;2022-10-16T13:25:16;19.90;76.60
42973;DHT22;28610;51.214;6.962;2022-10-16T13:28:07;19.90;77.90
42973;DHT22;28610;51.214;6.962;2022-10-16T13:30:54;20.00;76.80
42973;DHT22;28610;51.214;6.962;2022-10-16T13:33:42;19.80;76.40
42973;DHT22;28610;51.214;6.962;2022-10-16T13:36:29;19.80;77.80
42973;DHT22;28610;51.214;6.962;2022-10-16T13:39:21;19.80;76.80
42973;DHT22;28610;51.214;6.962;2022-10-16T13:42:11;19.70;76.20
42973;DHT22;28610;51.214;6.962;2022-10-16T13:44:59;19.70;76.40
42973;DHT22;28610;51.214;6.962;2022-10-16T13:47:44;19.70;76.70
42973;DHT22;28610;51.214;6.962;2022-10-16T13:50:29;19.70;76.90
42973;DHT22;28610;51.214;6.962;2022-10-16T13:53:15;19.80;75.70
42973;DHT22;28610;51.214;6.962;2022-10-16T13:56:02;19.70;75.30
42973;DHT22;28610;51.214;6.962;2022-10-16T13:58:58;19.50;75.00
42973;DHT22;28610;51.214;6.962;2022-10-16T14:01:45;19.50;78.70
42973;DHT22;28610;51.214;6.962;2022-10-16T14:04:32;19.70;77.20
42973;DHT22;28610;51.214;6.962;2022-10-16T14:07:22;19.60;76.60
42973;DHT22;28610;51.214;6.962;2022-10-16T14:10:20;19.70;75.00
42973;DHT22;28610;51.214;6.962;2022-10-16T14:13:07;19.70;77.60
42973;DHT22;28610;51.214;6.962;2022-10-16T14:16:00;19.50;76.60
42973;DHT22;28610;51.214;6.962;2022-10-16T14:18:56;19.30;78.50
42973;DHT22;28610;51.214;6.962;2022-10-16T14:21:42;19.20;76.80
42973;DHT22;28610;51.214;6.962;2022-10-16T14:24:33;19.20;79.70
42973;DHT22;28610;51.214;6.962;2022-10-16T14:27:25;19.40;77.80
42973;DHT22;28610;51.214;6.962;2022-10-16T14:30:14;19.40;76.70
42973;DHT22;28610;51.214;6.962;2022-10-16T14:33:02;19.40;77.30
42973;DHT22;28610;51.214;6.962;2022-10-16T14:35:59;19.40;80.50
42973;DHT22;28610;51.214;6.962;2022-10-16T14:38:49;19.40;80.20
42973;DHT22;28610;51.214;6.962;2022-10-16T14:41:43;19.40;79.60
42973;DHT22;28610;51.214;6.962;2022-10-16T14:44:32;19.40;77.90
42973;DHT22;28610;51.214;6.962;2022-10-16T14:47:19;19.30;79.70
42973;DHT22;28610;51.214;6.962;2022-10-16T14:50:08;19.20;82.00
42973;DHT22;28610;51.214;6.962;2022-10-16T14:52:55;19.20;80.00
42973;DHT22;28610;51.214;6.962;2022-10-16T14:55:42;19.20;82.00
42973;DHT22;28610;51.214;6.962;2022-10-16T14:58:27;19.10;83.30
42973;DHT22;28610;51.214;6.962;2022-10-16T15:01:13;19.20;83.10
42973;DHT22;28610;51.214;6.962;2022-10-16T15:03:58;19.10;84.30
42973;DHT22;28610;51.214;6.962;2022-10-16T15:06:44;19.00;84.80
42973;DHT22;28610;51.214;6.962;2022-10-16T15:09:31;19.00;86.50
42973;DHT22;28610;51.214;6.962;2022-10-16T15:12:17;19.00;84.90
42973;DHT22;28610;51.214;6.962;2022-10-16T15:15:20;19.00;87.50
42973;DHT22;28610;51.214;6.962;2022-10-16T15:18:06;19.00;87.90
42973;DHT22;28610;51.214;6.962;2022-10-16T15:20:51;19.00;86.50
42973;DHT22;28610;51.214;6.962;2022-10-16T15:23:38;18.90;89.80
42973;DHT22;28610;51.214;6.962;2022-10-16T15:26:26;18.90;88.60
42973;DHT22;28610;51.214;6.962;2022-10-16T15:29:13;18.80;89.00
42973;DHT22;28610;51.214;6.962;2022-10-16T15:31:58;18.80;89.00
42973;DHT22;28610;51.214;6.962;2022-10-16T15:34:43;18.70;89.80
42973;DHT22;28610;51.214;6.962;2022-10-16T15:37:29;18.70;90.00
42973;DHT22;28610;51.214;6.962;2022-10-16T15:40:15;18.60;88.30
42973;DHT22;28610;51.214;6.962;2022-10-16T15:43:02;18.60;88.80
42973;DHT22;28610;51.214;6.962;2022-10-16T15:45:59;18.50;89.90
42973;DHT22;28610;51.214;6.962;2022-10-16T15:48:45;18.40;90.00
42973;DHT22;28610;51.214;6.962;2022-10-16T15:51:30;18.40;90.10
42973;DHT22;28610;51.214;6.962;2022-10-16T15:54:18;18.30;90.30
42973;DHT22;28610;51.214;6.962;2022-10-16T15:57:05;18.30;90.40
42973;DHT22;28610;51.214;6.962;2022-10-16T15:59:52;18.20;89.10
42973;DHT22;28610;51.214;6.962;2022-10-16T16:02:38;18.20;87.70
42973;DHT22;28610;51.214;6.962;2022-10-16T16:05:23;18.20;87.90
42973;DHT22;28610;51.214;6.962;2022-10-16T16:08:08;18.20;89.60
42973;DHT22;28610;51.214;6.962;2022-10-16T16:10:58;18.10;89.90
42973;DHT22;28610;51.214;6.962;2022-10-16T16:13:43;18.10;90.00
42973;DHT22;28610;51.214;6.962;2022-10-16T16:16:30;18.10;90.00
42973;DHT22;28610;51.214;6.962;2022-10-16T16:19:17;18.00;90.00
42973;DHT22;28610;51.214;6.962;2022-10-16T16:22:04;18.00;90.60
42973;DHT22;28610;51.214;6.962;2022-10-16T16:24:50;17.90;91.10
42973;DHT22;28610;51.214;6.962;2022-10-16T16:27:35;17.90;91.10
42973;DHT22;28610;51.214;6.962;2022-10-16T16:30:22;17.80;91.30
42973;DHT22;28610;51.214;6.962;2022-10-16T16:33:09;17.80;91.70
42973;DHT22;28610;51.214;6.962;2022-10-16T16:35:58;17.70;91.80
42973;DHT22;28610;51.214;6.962;2022-10-16T16:38:44;17.70;92.50
42973;DHT22;28610;51.214;6.962;2022-10-16T16:41:30;17.70;92.50
42973;DHT22;28610;51.214;6.962;2022-10-16T16:44:16;17.60;92.90
42973;DHT22;28610;51.214;6.962;2022-10-16T16:47:02;17.60;92.90
42973;DHT22;28610;51.214;6.962;2022-10-16T16:49:49;17.60;93.20
42973;DHT22;28610;51.214;6.962;2022-10-16T16:52:35;17.50;93.30
42973;DHT22;28610;51.214;6.962;2022-10-16T16:55:21;17.50;93.60
42973;DHT22;28610;51.214;6.962;2022-10-16T16:58:06;17.50;93.60
42973;DHT22;28610;51.214;6.962;2022-10-16T17:00:52;17.50;93.50
42973;DHT22;28610;51.214;6.962;2022-10-16T17:03:37;17.60;93.70
42973;DHT22;28610;51.214;6.962;2022-10-16T17:06:26;17.60;93.70
42973;DHT22;28610;51.214;6.962;2022-10-16T17:09:13;17.60;93.90
42973;DHT22;28610;51.214;6.962;2022-10-16T17:11:59;17.50;94.20
42973;DHT22;28610;51.214;6.962;2022-10-16T17:14:44;17.50;94.10
42973;DHT22;28610;51.214;6.962;2022-10-16T17:17:30;17.60;94.30
42973;DHT22;28610;51.214;6.962;2022-10-16T17:20:15;17.60;94.40
42973;DHT22;28610;51.214;6.962;2022-10-16T17:23:02;17.60;94.50
42973;DHT22;28610;51.214;6.962;2022-10-16T17:25:48;17.60;94.50
42973;DHT22;28610;51.214;6.962;2022-10-16T17:28:34;17.60;94.70
42973;DHT22;28610;51.214;6.962;2022-10-16T17:31:21;17.60;94.90
42973;DHT22;28610;51.214;6.962;2022-10-16T17:34:07;17.60;95.10
42973;DHT22;28610;51.214;6.962;2022-10-16T17:36:53;17.50;95.20
42973;DHT22;28610;51.214;6.962;2022-10-16T17:39:40;17.60;95.40
42973;DHT22;28610;51.214;6.962;2022-10-16T17:42:26;17.60;95.40
42973;DHT22;28610;51.214;6.962;2022-10-16T17:45:11;17.50;96.00